createdAt,value
2022-11-04T00:00:58.480Z,15.90
2022-11-04T00:03:32.527Z,15.90
2022-11-04T00:06:09.108Z,15.80
2022-11-04T00:08:43.475Z,15.80
2022-11-04T00:11:33.203Z,15.80
2022-11-04T00:14:07.821Z,15.70
2022-11-04T00:16:57.825Z,15.60
2022-11-04T00:19:51.757Z,15.80
2022-11-04T00:22:43.557Z,15.90
2022-11-04T00:25:33.395Z,16.00
2022-11-04T00:28:30.246Z,16.00
2022-11-04T00:31:25.590Z,15.90
2022-11-04T00:33:59.967Z,16.00
2022-11-04T00:36:34.437Z,16.10
2022-11-04T00:39:11.085Z,16.10
2022-11-04T00:41:44.478Z,16.20
2022-11-04T00:44:18.199Z,16.20
2022-11-04T00:46:51.362Z,16.20
2022-11-04T00:49:24.427Z,16.10
2022-11-04T00:51:58.222Z,16.10
2022-11-04T00:54:34.081Z,16.10
2022-11-04T00:57:07.962Z,16.20
2022-11-04T00:59:42.668Z,16.20
2022-11-04T01:02:17.488Z,16.20
2022-11-04T01:04:53.355Z,16.10
2022-11-04T01:07:27.058Z,16.20
2022-11-04T01:10:03.503Z,16.10
2022-11-04T01:12:38.333Z,16.20
2022-11-04T01:15:12.459Z,16.20
2022-11-04T01:17:48.410Z,16.20
2022-11-04T01:20:23.538Z,16.20
2022-11-04T01:22:57.847Z,16.30
2022-11-04T01:25:33.629Z,16.40
2022-11-04T01:28:07.617Z,16.50
2022-11-04T01:30:43.374Z,16.50
2022-11-04T01:33:18.750Z,16.40
2022-11-04T01:35:52.093Z,16.40
2022-11-04T01:38:26.371Z,16.40
2022-11-04T01:41:03.328Z,16.40
2022-11-04T01:43:52.867Z,16.60
2022-11-04T01:46:37.910Z,16.60
2022-11-04T01:49:30.000Z,16.60
2022-11-04T01:52:09.873Z,16.50
2022-11-04T01:54:45.805Z,16.60
2022-11-04T01:57:26.029Z,16.70
2022-11-04T02:00:02.492Z,16.80
2022-11-04T02:03:07.776Z,16.80
2022-11-04T02:09:27.943Z,16.90
2022-11-04T02:12:18.322Z,17.00
2022-11-04T02:14:55.563Z,16.90
2022-11-04T02:17:42.869Z,17.10
2022-11-04T02:20:36.680Z,17.10
2022-11-04T02:23:55.826Z,17.10
2022-11-04T02:26:53.396Z,17.10
2022-11-04T02:30:01.009Z,17.20
2022-11-04T02:32:48.480Z,17.10
2022-11-04T02:35:30.692Z,17.10
2022-11-04T02:38:15.073Z,17.10
2022-11-04T02:41:01.561Z,17.10
2022-11-04T02:43:41.505Z,17.20
2022-11-04T02:46:24.811Z,17.30
2022-11-04T02:49:03.668Z,17.30
2022-11-04T02:51:42.472Z,17.40
2022-11-04T02:54:22.783Z,17.50
2022-11-04T02:56:59.551Z,17.60
2022-11-04T02:59:55.837Z,17.30
2022-11-04T03:02:37.609Z,17.40
2022-11-04T03:05:15.291Z,17.40
2022-11-04T03:07:50.878Z,17.30
2022-11-04T03:10:27.797Z,17.50
2022-11-04T03:13:22.298Z,17.60
2022-11-04T03:15:59.191Z,17.60
2022-11-04T03:18:42.445Z,17.60
2022-11-04T03:21:19.000Z,17.80
2022-11-04T03:23:52.778Z,17.80
2022-11-04T03:26:30.563Z,17.90
2022-11-04T03:29:16.286Z,17.80
2022-11-04T03:31:55.063Z,18.10
2022-11-04T03:34:31.705Z,18.20
2022-11-04T03:37:07.696Z,18.20
2022-11-04T03:39:42.155Z,18.40
2022-11-04T03:42:24.939Z,18.50
2022-11-04T03:45:01.425Z,18.50
2022-11-04T03:47:36.979Z,18.40
2022-11-04T03:50:17.198Z,18.60
2022-11-04T03:52:51.712Z,18.60
2022-11-04T03:55:26.359Z,18.30
2022-11-04T03:58:06.949Z,18.50
2022-11-04T04:00:47.391Z,18.60
2022-11-04T04:03:25.926Z,18.40
2022-11-04T04:06:06.755Z,18.30
2022-11-04T04:08:46.111Z,18.20
2022-11-04T04:11:24.935Z,18.10
2022-11-04T04:14:06.015Z,18.00
2022-11-04T04:16:43.381Z,17.80
2022-11-04T04:19:20.787Z,17.80
2022-11-04T04:22:02.363Z,17.80
2022-11-04T04:24:56.741Z,17.90
2022-11-04T04:27:35.984Z,18.00
2022-11-04T04:30:13.443Z,18.00
2022-11-04T04:32:51.831Z,18.00
2022-11-04T04:35:47.492Z,18.20
2022-11-04T04:38:42.743Z,18.20
2022-11-04T04:41:36.870Z,18.10
2022-11-04T04:44:33.378Z,18.30
2022-11-04T04:47:10.288Z,18.10
2022-11-04T04:49:54.982Z,18.00
2022-11-04T04:52:30.878Z,18.10
2022-11-04T04:55:06.111Z,18.30
2022-11-04T04:57:41.479Z,18.30
2022-11-04T05:00:20.551Z,18.40
2022-11-04T05:02:54.599Z,18.70
2022-11-04T05:05:28.549Z,18.60
2022-11-04T05:08:10.390Z,18.60
2022-11-04T05:10:47.490Z,18.70
2022-11-04T05:13:32.650Z,18.60
2022-11-04T05:16:12.016Z,18.70
2022-11-04T05:18:46.357Z,19.10
2022-11-04T05:21:20.813Z,19.30
2022-11-04T05:23:55.232Z,19.30
2022-11-04T05:26:32.495Z,19.40
2022-11-04T05:29:06.697Z,19.40
2022-11-04T05:31:40.886Z,19.30
2022-11-04T05:34:16.424Z,19.10
2022-11-04T05:36:51.210Z,19.20
2022-11-04T05:39:26.051Z,19.40
2022-11-04T05:42:02.774Z,19.40
2022-11-04T05:44:37.879Z,19.30
2022-11-04T05:47:11.708Z,19.10
2022-11-04T05:49:46.702Z,19.20
2022-11-04T05:52:21.074Z,19.20
2022-11-04T05:54:55.895Z,19.10
2022-11-04T05:57:32.803Z,19.20
2022-11-04T06:00:06.622Z,19.60
2022-11-04T06:02:41.125Z,19.90
2022-11-04T06:05:15.790Z,20.00
2022-11-04T06:07:49.888Z,20.10
2022-11-04T06:10:24.653Z,20.40
2022-11-04T06:13:01.692Z,20.30
2022-11-04T06:15:37.137Z,20.20
2022-11-04T06:18:11.596Z,19.90
2022-11-04T06:20:45.150Z,19.80
2022-11-04T06:23:20.705Z,19.80
2022-11-04T06:25:59.570Z,20.20
2022-11-04T06:28:36.082Z,20.50
2022-11-04T06:31:11.770Z,20.70
2022-11-04T06:33:45.922Z,20.70
2022-11-04T06:36:20.594Z,20.80
2022-11-04T06:38:59.937Z,20.90
2022-11-04T06:41:37.172Z,20.70
2022-11-04T06:44:13.751Z,20.80
2022-11-04T06:46:49.157Z,20.60
2022-11-04T06:49:25.148Z,20.70
2022-11-04T06:51:58.913Z,20.70
2022-11-04T06:54:34.059Z,20.70
2022-11-04T06:57:09.466Z,20.50
2022-11-04T06:59:46.591Z,20.40
2022-11-04T07:02:20.624Z,20.10
2022-11-04T07:04:55.499Z,19.80
2022-11-04T07:07:30.646Z,19.80
2022-11-04T07:10:04.932Z,20.00
2022-11-04T07:12:39.342Z,19.80
2022-11-04T07:15:16.421Z,19.80
2022-11-04T07:17:51.240Z,19.90
2022-11-04T07:20:25.592Z,19.80
2022-11-04T07:23:02.148Z,19.90
2022-11-04T07:25:35.934Z,19.90
2022-11-04T07:28:09.808Z,19.70
2022-11-04T07:30:46.458Z,19.90
2022-11-04T07:33:21.128Z,19.90
2022-11-04T07:35:57.131Z,20.00
2022-11-04T07:38:32.951Z,20.50
2022-11-04T07:41:07.864Z,20.50
2022-11-04T07:43:43.066Z,20.60
2022-11-04T07:46:19.263Z,20.50
2022-11-04T07:48:54.214Z,20.30
2022-11-04T07:51:29.401Z,20.10
2022-11-04T07:54:04.326Z,20.10
2022-11-04T07:56:38.845Z,19.80
2022-11-04T07:59:14.194Z,19.50
2022-11-04T08:01:51.654Z,19.40
2022-11-04T08:04:25.776Z,19.30
2022-11-04T08:07:00.811Z,19.50
2022-11-04T08:09:34.499Z,19.60
2022-11-04T08:12:08.528Z,19.70
2022-11-04T08:14:43.831Z,19.80
2022-11-04T08:17:19.391Z,19.80
2022-11-04T08:19:53.481Z,19.70
2022-11-04T08:22:31.811Z,19.60
2022-11-04T08:25:28.719Z,19.60
2022-11-04T08:31:00.050Z,19.40
2022-11-04T08:33:47.685Z,19.40
2022-11-04T08:36:24.101Z,19.20
2022-11-04T08:38:58.387Z,19.00
2022-11-04T08:41:34.029Z,19.20
2022-11-04T08:44:08.337Z,19.00
2022-11-04T08:46:45.256Z,18.90
2022-11-04T08:52:12.284Z,18.90
2022-11-04T08:54:49.680Z,18.90
2022-11-04T08:57:26.240Z,18.90
2022-11-04T08:59:59.679Z,18.90
2022-11-04T09:02:33.389Z,19.00
2022-11-04T09:05:09.435Z,19.00
2022-11-04T09:07:43.422Z,18.90
2022-11-04T09:10:17.657Z,18.80
2022-11-04T09:12:51.153Z,18.80
2022-11-04T09:15:25.972Z,18.90
2022-11-04T09:18:01.204Z,18.80
2022-11-04T09:20:40.030Z,18.80
2022-11-04T09:23:15.692Z,18.70
2022-11-04T09:25:49.510Z,18.70
2022-11-04T09:28:23.501Z,18.60
2022-11-04T09:30:58.735Z,18.70
2022-11-04T09:33:32.650Z,18.70
2022-11-04T09:36:09.553Z,18.80
2022-11-04T09:38:43.312Z,18.80
2022-11-04T09:41:42.447Z,18.70
2022-11-04T09:44:29.343Z,18.80
2022-11-04T09:47:05.694Z,18.70
2022-11-04T09:49:44.000Z,18.60
2022-11-04T09:52:25.677Z,18.60
2022-11-04T09:55:03.869Z,18.50
2022-11-04T09:57:38.684Z,18.50
2022-11-04T10:00:21.691Z,18.50
2022-11-04T10:03:06.616Z,18.50
2022-11-04T10:05:55.639Z,18.50
2022-11-04T10:09:00.529Z,18.50
2022-11-04T10:11:42.249Z,18.50
2022-11-04T10:14:43.297Z,18.50
2022-11-04T10:17:35.978Z,18.40
2022-11-04T10:20:25.607Z,18.50
2022-11-04T10:23:03.518Z,18.40
2022-11-04T10:25:47.720Z,18.30
2022-11-04T10:28:23.834Z,18.40
2022-11-04T10:30:58.743Z,18.30
2022-11-04T10:33:38.292Z,18.40
2022-11-04T10:36:16.718Z,18.30
2022-11-04T10:38:56.832Z,18.30
2022-11-04T10:41:38.416Z,18.30
2022-11-04T10:44:19.574Z,18.30
2022-11-04T10:47:02.930Z,18.30
2022-11-04T10:52:53.758Z,18.30
2022-11-04T10:55:37.134Z,18.40
2022-11-04T10:58:19.801Z,18.30
2022-11-04T11:00:55.953Z,18.30
2022-11-04T11:03:35.909Z,18.30
2022-11-04T11:06:29.347Z,18.30
2022-11-04T11:09:16.024Z,18.30
2022-11-04T11:11:53.128Z,18.30
2022-11-04T11:14:38.774Z,18.30
2022-11-04T11:17:29.787Z,18.30
2022-11-04T11:20:06.912Z,18.30
2022-11-04T11:22:43.187Z,18.30
2022-11-04T11:25:29.306Z,18.30
2022-11-04T11:28:05.319Z,18.30
2022-11-04T11:30:58.416Z,18.30
2022-11-04T11:33:35.221Z,18.20
2022-11-04T11:36:14.078Z,18.20
2022-11-04T11:39:01.775Z,18.10
2022-11-04T11:41:43.533Z,18.10
2022-11-04T11:44:29.932Z,18.10
2022-11-04T11:47:07.884Z,18.20
2022-11-04T11:49:42.538Z,18.10
2022-11-04T11:52:38.151Z,18.10
2022-11-04T11:55:17.368Z,18.20
2022-11-04T12:01:10.105Z,18.20
2022-11-04T12:10:00.093Z,18.10
2022-11-04T12:12:54.543Z,18.10
2022-11-04T12:15:49.634Z,18.20
2022-11-04T12:18:38.344Z,18.10
2022-11-04T12:21:21.194Z,18.10
2022-11-04T12:24:02.355Z,18.10
2022-11-04T12:26:44.781Z,18.10
2022-11-04T12:29:38.462Z,18.10
2022-11-04T12:32:24.004Z,18.10
2022-11-04T12:35:11.381Z,18.00
2022-11-04T12:38:07.906Z,18.10
2022-11-04T12:41:05.079Z,18.00
2022-11-04T12:43:49.618Z,18.00
2022-11-04T12:46:32.859Z,18.00
2022-11-04T12:49:39.921Z,18.10
2022-11-04T12:52:22.560Z,18.10
2022-11-04T12:55:10.208Z,18.00
2022-11-04T12:57:51.159Z,18.00
2022-11-04T13:00:29.877Z,18.00
2022-11-04T13:03:09.782Z,18.00
2022-11-04T13:05:52.411Z,18.00
2022-11-04T13:08:35.311Z,18.00
2022-11-04T13:11:27.161Z,18.00
2022-11-04T13:14:07.945Z,17.90
2022-11-04T13:16:46.272Z,17.90
2022-11-04T13:19:30.844Z,17.90
2022-11-04T13:22:12.063Z,17.90
2022-11-04T13:24:56.609Z,17.90
2022-11-04T13:27:39.635Z,17.90
2022-11-04T13:30:24.683Z,17.90
2022-11-04T13:33:04.541Z,17.80
2022-11-04T13:35:50.525Z,17.90
2022-11-04T13:38:29.916Z,17.80
2022-11-04T13:41:21.822Z,17.80
2022-11-04T13:44:01.583Z,17.70
2022-11-04T13:46:38.778Z,17.80
2022-11-04T13:49:32.644Z,17.70
2022-11-04T13:52:12.671Z,17.70
2022-11-04T13:54:50.272Z,17.60
2022-11-04T13:57:26.386Z,17.60
2022-11-04T14:00:29.371Z,17.60
2022-11-04T14:03:05.017Z,17.60
2022-11-04T14:06:06.433Z,17.60
2022-11-04T14:08:41.554Z,17.50
2022-11-04T14:11:18.680Z,17.50
2022-11-04T14:14:08.377Z,17.50
2022-11-04T14:16:51.044Z,17.50
2022-11-04T14:20:13.105Z,17.60
2022-11-04T14:22:59.182Z,17.60
2022-11-04T14:25:41.036Z,17.60
2022-11-04T14:28:34.338Z,17.50
2022-11-04T14:31:17.104Z,17.40
2022-11-04T14:34:03.240Z,17.30
2022-11-04T14:36:46.540Z,17.30
2022-11-04T14:39:32.100Z,17.30
2022-11-04T14:42:09.682Z,17.30
2022-11-04T14:44:51.127Z,17.40
2022-11-04T14:47:30.917Z,17.40
2022-11-04T14:50:13.845Z,17.30
2022-11-04T14:52:55.204Z,17.30
2022-11-04T14:55:33.489Z,17.30
2022-11-04T14:58:29.442Z,17.20
2022-11-04T15:01:07.220Z,17.30
2022-11-04T15:04:10.950Z,17.20
2022-11-04T15:06:57.687Z,17.20
2022-11-04T15:09:36.144Z,17.30
2022-11-04T15:12:31.725Z,17.30
2022-11-04T15:15:07.767Z,17.10
2022-11-04T15:17:43.014Z,17.10
2022-11-04T15:20:30.795Z,17.10
2022-11-04T15:23:11.564Z,17.20
2022-11-04T15:25:54.071Z,17.10
2022-11-04T15:28:30.687Z,17.20
2022-11-04T15:31:22.407Z,17.10
2022-11-04T15:34:00.244Z,17.20
2022-11-04T15:36:40.743Z,17.10
2022-11-04T15:39:19.483Z,17.10
2022-11-04T15:42:12.395Z,17.10
2022-11-04T15:44:52.141Z,17.10
2022-11-04T15:47:31.517Z,17.20
2022-11-04T15:50:20.960Z,17.20
2022-11-04T15:53:01.811Z,17.10
2022-11-04T15:55:44.340Z,17.10
2022-11-04T15:58:20.464Z,17.00
2022-11-04T16:01:07.037Z,17.10
2022-11-04T16:03:41.574Z,17.20
2022-11-04T16:06:16.339Z,17.00
2022-11-04T16:09:10.224Z,17.10
2022-11-04T16:12:06.752Z,17.10
2022-11-04T16:14:41.056Z,17.00
2022-11-04T16:17:17.206Z,17.00
2022-11-04T16:19:53.830Z,17.00
2022-11-04T16:22:32.732Z,17.00
2022-11-04T16:25:09.077Z,16.90
2022-11-04T16:27:46.144Z,16.90
2022-11-04T16:30:25.387Z,16.90
2022-11-04T16:36:01.066Z,16.70
2022-11-04T16:38:36.081Z,16.70
2022-11-04T16:41:13.356Z,16.80
2022-11-04T16:43:48.932Z,16.80
2022-11-04T16:46:23.362Z,16.90
2022-11-04T16:48:58.563Z,16.80
2022-11-04T16:51:33.479Z,16.80
2022-11-04T16:54:08.385Z,16.80
2022-11-04T16:56:42.478Z,16.80
2022-11-04T16:59:19.121Z,16.70
2022-11-04T17:01:54.266Z,16.70
2022-11-04T17:04:28.078Z,16.80
2022-11-04T17:07:03.103Z,16.80
2022-11-04T17:09:37.353Z,16.80
2022-11-04T17:12:11.223Z,16.80
2022-11-04T17:14:45.981Z,16.70
2022-11-04T17:17:20.310Z,16.70
2022-11-04T17:19:54.461Z,16.70
2022-11-04T17:22:29.479Z,16.80
2022-11-04T17:25:03.656Z,16.60
2022-11-04T17:27:38.206Z,16.50
2022-11-04T17:30:18.178Z,16.50
2022-11-04T17:32:53.789Z,16.50
2022-11-04T17:35:27.493Z,16.50
2022-11-04T17:38:02.153Z,16.60
2022-11-04T17:40:56.668Z,16.60
2022-11-04T17:44:02.046Z,16.60
2022-11-04T17:46:40.062Z,16.60
2022-11-04T17:49:18.602Z,16.60
2022-11-04T17:51:54.937Z,16.50
2022-11-04T17:54:31.559Z,16.60
2022-11-04T17:57:05.928Z,16.70
2022-11-04T17:59:40.992Z,16.60
2022-11-04T18:02:17.890Z,16.60
2022-11-04T18:04:52.257Z,16.50
2022-11-04T18:07:27.796Z,16.50
2022-11-04T18:10:02.984Z,16.60
2022-11-04T18:12:43.821Z,16.50
2022-11-04T18:15:20.496Z,16.60
2022-11-04T18:17:56.412Z,16.50
2022-11-04T18:20:30.120Z,16.60
2022-11-04T18:23:04.251Z,16.60
2022-11-04T18:25:38.792Z,16.70
2022-11-04T18:28:13.782Z,16.70
2022-11-04T18:30:48.791Z,16.70
2022-11-04T18:33:25.635Z,16.70
2022-11-04T18:35:59.227Z,16.70
2022-11-04T18:38:33.120Z,16.70
2022-11-04T18:41:07.113Z,16.70
2022-11-04T18:43:41.858Z,16.70
2022-11-04T18:46:16.826Z,16.70
2022-11-04T18:48:58.555Z,16.70
2022-11-04T18:51:32.022Z,16.70
2022-11-04T18:54:09.952Z,16.60
2022-11-04T18:56:45.071Z,16.70
2022-11-04T18:59:20.130Z,16.70
2022-11-04T19:01:54.695Z,16.80
2022-11-04T19:04:30.287Z,16.80
2022-11-04T19:07:05.159Z,16.80
2022-11-04T19:09:47.193Z,16.80
2022-11-04T19:12:41.060Z,16.80
2022-11-04T19:15:15.664Z,16.70
2022-11-04T19:17:49.557Z,16.60
2022-11-04T19:20:25.387Z,16.70
2022-11-04T19:22:59.981Z,16.70
2022-11-04T19:25:34.008Z,16.70
2022-11-04T19:28:32.678Z,16.70
2022-11-04T19:31:06.891Z,16.70
2022-11-04T19:33:41.764Z,16.70
2022-11-04T19:36:19.764Z,16.70
2022-11-04T19:38:58.496Z,16.70
2022-11-04T19:41:49.075Z,16.70
2022-11-04T19:44:24.706Z,16.60
2022-11-04T19:46:59.550Z,16.70
2022-11-04T19:49:33.951Z,16.70
2022-11-04T19:52:11.493Z,16.70
2022-11-04T19:54:46.356Z,16.70
2022-11-04T19:57:21.580Z,16.70
2022-11-04T19:59:57.461Z,16.60
2022-11-04T20:02:31.386Z,16.60
2022-11-04T20:05:05.456Z,16.60
2022-11-04T20:07:40.904Z,16.60
2022-11-04T20:10:16.567Z,16.60
2022-11-04T20:13:06.151Z,16.60
2022-11-04T20:15:40.053Z,16.60
2022-11-04T20:18:13.755Z,16.60
2022-11-04T20:20:48.878Z,16.60
2022-11-04T20:23:25.036Z,16.60
2022-11-04T20:25:58.498Z,16.70
2022-11-04T20:28:35.433Z,16.60
2022-11-04T20:31:15.533Z,16.70
2022-11-04T20:33:49.766Z,16.60
2022-11-04T20:36:27.700Z,16.60
2022-11-04T20:39:05.432Z,16.70
2022-11-04T20:41:39.775Z,16.70
2022-11-04T20:44:15.845Z,16.70
2022-11-04T20:46:50.514Z,16.70
2022-11-04T20:49:24.944Z,16.70
2022-11-04T20:51:58.802Z,16.60
2022-11-04T20:54:35.188Z,16.70
2022-11-04T20:57:09.020Z,16.70
2022-11-04T20:59:43.015Z,16.70
2022-11-04T21:02:17.469Z,16.60
2022-11-04T21:04:52.184Z,16.60
2022-11-04T21:07:26.971Z,16.60
2022-11-04T21:10:02.944Z,16.50
2022-11-04T21:12:38.140Z,16.50
2022-11-04T21:15:32.595Z,16.40
2022-11-04T21:18:07.581Z,16.50
2022-11-04T21:20:43.119Z,16.60
2022-11-04T21:23:18.421Z,16.50
2022-11-04T21:25:58.475Z,16.50
2022-11-04T21:28:32.402Z,16.50
2022-11-04T21:31:09.801Z,16.60
2022-11-04T21:34:18.979Z,16.50
2022-11-04T21:36:57.631Z,16.60
2022-11-04T21:39:32.185Z,16.60
2022-11-04T21:42:08.198Z,16.50
2022-11-04T21:44:42.235Z,16.60
2022-11-04T21:47:16.296Z,16.50
2022-11-04T21:49:51.640Z,16.50
2022-11-04T21:52:25.556Z,16.40
2022-11-04T21:54:59.616Z,16.40
2022-11-04T21:57:36.464Z,16.40
2022-11-04T22:00:12.320Z,16.40
2022-11-04T22:02:48.589Z,16.40
2022-11-04T22:05:22.831Z,16.40
2022-11-04T22:08:12.380Z,16.50
2022-11-04T22:10:46.985Z,16.50
2022-11-04T22:13:23.172Z,16.50
2022-11-04T22:16:03.989Z,16.40
2022-11-04T22:18:37.956Z,16.50
2022-11-04T22:21:14.706Z,16.40
2022-11-04T22:23:49.172Z,16.40
2022-11-04T22:26:25.885Z,16.40
2022-11-04T22:29:02.696Z,16.40
2022-11-04T22:31:38.063Z,16.40
2022-11-04T22:34:12.350Z,16.50
2022-11-04T22:36:46.783Z,16.50
2022-11-04T22:39:21.345Z,16.60
2022-11-04T22:41:54.646Z,16.60
2022-11-04T22:44:31.077Z,16.50
2022-11-04T22:47:05.345Z,16.50
2022-11-04T22:49:40.086Z,16.50
2022-11-04T22:52:15.059Z,16.40
2022-11-04T22:54:49.963Z,16.50
2022-11-04T22:57:24.736Z,16.40
2022-11-04T23:00:00.936Z,16.50
2022-11-04T23:02:37.067Z,16.50
2022-11-04T23:05:11.671Z,16.50
2022-11-04T23:07:46.748Z,16.50
2022-11-04T23:10:36.321Z,16.60
2022-11-04T23:13:25.668Z,16.50
2022-11-04T23:16:18.373Z,16.50
2022-11-04T23:18:55.462Z,16.50
2022-11-04T23:21:45.378Z,16.50
2022-11-04T23:24:35.072Z,16.50
2022-11-04T23:27:09.661Z,16.40
2022-11-04T23:29:58.989Z,16.40
2022-11-04T23:32:34.751Z,16.40
2022-11-04T23:35:24.706Z,16.40
2022-11-04T23:38:02.499Z,16.40
2022-11-04T23:40:37.087Z,16.50
2022-11-04T23:43:09.577Z,16.60
2022-11-04T23:45:59.877Z,16.60
2022-11-04T23:48:50.995Z,16.60
2022-11-04T23:51:41.397Z,16.60
2022-11-04T23:54:31.056Z,16.60
2022-11-04T23:57:20.561Z,16.60
